2018 Ballard Cup Series III
7/9/2018

Sloop Tavern Yacht Club


PRELIMINARY

Committee Boat - Eclipse

Race 1


R1 R2 R3 R4 R5 Series Overall

Class: 1 NFS - Start: 18:15:00 - Course: NMBN - Distance: 3.203      

Boat Name SailNo Boat Type Skipper Rating Club Start Finish Elapsed Corrected BCE Notes Place OA
Astraea 6560 Star Kirsten Bergstrom 153 STYC 18:15:00 19:18:38 1:03:38 0:55:28 0:00:00 Non-Flying 1 14
Anarchy 11 FT 10 Tom Ward 72 STYC 18:15:00 19:19:33 1:04:33 1:00:42 0:05:14 Non-Flying 2 24
Amoretto 79104 Jeanneau Martin Bower 204 STYC 18:15:00 19:33:03 1:18:03 1:07:10 0:11:42 Non-Flying 3 31
Billabong 4200 Lancer 36 Ben Lobaugh 147 STYC 18:15:00 19:41:16 1:26:16 1:18:25 0:22:57 Non-Flying 4 37
Kittiwake B30 Islander Bahama 20 mike mcguane 216 STYC 18:15:00 19:45:40 1:30:40 1:19:08 0:23:40 Non-Flying 5 38
Blue Lullaby 391 Newport 28 John H Endresen 231 STYC 18:15:00 DNC Non-Flying 7 51
Figaro 7784 Ericson 39 Pete Serafin 159 STYC 18:15:00 DNC Non-Flying 7 51
Frog Prints 79070 Dufour 34 Tim Onders 192 STYC 18:15:00 DNC Non-Flying 7 51

Class: 2 FS - Start: 18:20:00 - Course: NMBN - Distance: 3.203      

Boat Name SailNo Boat Type Skipper Rating Club Start Finish Elapsed Corrected BCE Notes Place OA
Rock Lobster 59306 San Juan 7.7 Trent Piepho 210 STYC 18:20:00 19:27:26 1:07:26 0:56:13 0:00:00 Flying 1 16
Water Street 1376 Cal 2-24 Mark Jackson 252 STYC 18:20:00 19:42:38 1:22:38 1:09:11 0:12:58 Flying 2 33
Miss Mayhem 422 San Juan 24 Melissa Davies 228 STYC 18:20:00 19:42:32 1:22:32 1:10:22 0:14:09 Flying 3 34
Aquavit 3242 Interational Folkboat David Sinson 285 STYC 18:20:00 DNC Flying 5 51
Lady Too 59382 San Jaun 28 Damon Darley 201 STYC 18:20:00 DNC Flying 5 51
Wavelength 49922 ranger 29 Eric Dunkel 198 STYC 18:20:00 DNC Flying 5 51

Class: 3 FS - Start: 18:25:00 - Course: NMBN - Distance: 3.203      

Boat Name SailNo Boat Type Skipper Rating Club Start Finish Elapsed Corrected BCE Notes Place OA
shazam 42269 Santa Cruz 27 bob tollenaar 156 STYC 18:25:00 19:25:10 1:00:10 0:51:50 0:00:00 Flying 1 7
Zap 59269 Zap 26 Don Sarin 147 STYC 18:25:00 19:26:20 1:01:20 0:53:29 0:01:39 Flying 2 8
The Banana Stand 104 Santa Cruz 27 Adam Yuret 162 STYC 18:25:00 19:29:32 1:04:32 0:55:53 0:04:03 Flying 3 15
Perfectly Strange 87210 POCK22-1 Paul Kalina 174 STYC 18:25:00 19:31:28 1:06:28 0:57:11 0:05:21 Flying 4 18
Morphine 72 Moore 24 Nick Farley 168 STYC 18:25:00 19:34:23 1:09:23 1:00:25 0:08:35 Flying 5 22
More Uff Da 26 Moore 24 Ben Braden 168 STYC 18:25:00 DNC Flying 7 51
Sputnik 132 Moore 24 Jacob Kennedy 168 STYC 18:25:00 DNC Flying 7 51
Three Ring Circus 37 Olson 25 Nate Creitz 174 STYC 18:25:00 DNC Flying 7 51

Class: 4 FS - Start: 18:30:00 - Course: NMBN - Distance: 3.203      

Boat Name SailNo Boat Type Skipper Rating Club Start Finish Elapsed Corrected BCE Notes Place OA
Outlaw 77108 J/30 Cindy Gossett 138 STYC 18:30:00 19:34:24 1:04:24 0:57:02 0:00:00 Flying 1 17
Kowloon 17 Olson 911 Ken Chin 129 STYC 18:30:00 19:43:13 1:13:13 1:06:20 0:09:18 Flying 2 29
Elixer 29 Aphro 101 Megahn K 150 STYC 18:30:00 19:46:40 1:16:40 1:08:40 0:11:38 Flying 3 32
Sea Trek II 69326 Catalina 34 Tom Madden 171 SBYC 18:30:00 19:58:29 1:28:29 1:19:21 0:22:19 Flying 4 39
Celtic Breeze 233 Ericson 35 MK3 Glenn Knitter 159 STYC 18:30:00 20:00:54 1:30:54 1:22:25 0:25:23 Flying 5 41
Airloom 69410 Baba 40 Tim Morgenroth 168 STYC 18:30:00 20:02:08 1:32:08 1:23:10 0:26:08 Flying 6 42
Kamoon NA Beneteau Michael Taft 163 STYC 18:30:00 20:11:06 1:41:06 1:32:24 0:35:22 Flying 7 47
Sea Haven Catalina 34 Cary K 147 STYC 18:30:00 20:11:28 1:41:28 1:33:37 0:36:35 Flying 8 48
Grayling 7 Q-class Duke 144 STYC 18:30:00 DNC Flying 10 51
Velella 150 Wylie 31 Ryan Helling 165 STYC 18:30:00 DNC Flying 10 51

Class: 5 FS - Start: 18:35:00 - Course: NMBN - Distance: 3.203      

Boat Name SailNo Boat Type Skipper Rating Club Start Finish Elapsed Corrected BCE Notes Place OA
Crazy Ivan 151 J/80 Taylor Joosten 129 STYC 18:35:00 19:35:37 1:00:37 0:53:44 0:00:00 Flying 1 9.5
Jolly Green 1 J/80 Mike Poole 129 SSC 18:35:00 19:42:55 1:07:55 1:01:02 0:07:18 Flying 2 25
Reckless 296 J/80 Sezer Emre 129 STYC 18:35:00 19:42:56 1:07:56 1:01:03 0:07:19 Flying 3 26
Taj Majall 45 J/80 Jacob Kemp 129 SSC 18:35:00 19:52:53 1:17:53 1:11:00 0:17:16 Flying 4 35
Stellar J 546 J/80 Dunes Wijayratne 129 SSC 18:35:00 20:11:00 1:36:00 1:29:07 0:35:23 Flying 5 44
No Name #15 J/80 Seattle Sailing Club 129 SSC 18:35:00 20:11:01 1:36:01 1:29:08 0:35:24 Flying 6 45
Rush 988 J/80 John Lueders 129 SSC 18:35:00 20:11:59 1:36:59 1:30:06 0:36:22 Flying 7 46
Namaste 11 J/80 Seattle Sailing Club 129 SSC 18:35:00 DNF Flying 8 50
Underdog 85 J/80 Andreas Wieberneit 129 SSC 18:35:00 DNC Flying 9 51
UpRoar 41 J/80 Morris Lowitz 129 STYC 18:35:00 DNC Flying 9 51

Class: 6 FS - Start: 18:40:00 - Course: NMBN - Distance: 3.203      

Boat Name SailNo Boat Type Skipper Rating Club Start Finish Elapsed Corrected BCE Notes Place OA
Muffin 18660 Santa Cruz33 Garry Greth 117 STYC 18:40:00 19:35:11 0:55:11 0:48:56 0:00:00 Flying 1 4
Poisson Soluble 69351 Hobie 33 Robert Horsley 96 STYC 18:40:00 19:38:58 0:58:58 0:53:51 0:04:55 Flying 2 11
Latitude 60680 Jeanneau 409 Bill Gibson 93 STYC 18:40:00 19:44:14 1:04:14 0:59:16 0:10:20 Flying 3 20
Wings 244 J/29 Jim Moynihan 120 STYC 18:40:00 19:46:47 1:06:47 1:00:23 0:11:27 Flying 4 21
Different Drummer 52804 Wauqueiz Centurion 40s Charles Hill 81 STYC 18:40:00 19:45:00 1:05:00 1:00:41 0:11:45 Flying 5 23
Slow Loris 12345 Choate 40 Duncan Smith 96 STYC 18:40:00 19:46:12 1:06:12 1:01:05 0:12:09 Flying 6 27
Wildflower 69264 J 35C Steve Kirsch 96 STYC 18:40:00 20:08:55 1:28:55 1:23:48 0:34:52 Flying 7 43
Helios 33 Beneteau First 36.7 David James 81 STYC 18:40:00 DNC Flying 9 51

Class: 7 FS - Start: 18:45:00 - Course: NMBN - Distance: 3.203      

Boat Name SailNo Boat Type Skipper Rating Club Start Finish Elapsed Corrected BCE Notes Place OA
Last Tango 212 J/105 Jim Geros 93 STYC 18:45:00 19:43:42 0:58:42 0:53:44 0:00:00 Flying 1 9.5
Puff 115 J/105 Tamara Jacobs 93 SSC 18:45:00 19:48:33 1:03:33 0:58:35 0:04:51 Flying 2 19
Corvo 105 475 J/105 Tom Kerr 93 STYC 18:45:00 19:54:53 1:09:53 1:04:55 0:11:11 Flying 3 28
Liftoff 621 J/105 Philippe LE MOUEL 93 STYC 18:45:00 19:56:51 1:11:51 1:06:53 0:13:09 Flying 4 30
Paladin 412 J/105 Dean Willard 93 STYC 18:45:00 20:04:01 1:19:01 1:14:03 0:20:19 Flying 5 36
Avalanche 495 J/105 Jeremy Boynes 93 STYC 18:45:00 20:10:05 1:25:05 1:20:07 0:26:23 Flying 6 40
Cyrano 253 J/105 Seattle Sailing Club 93 SSC 18:45:00 20:29:24 1:44:24 1:39:26 0:45:42 Flying 7 49

Class: 8 FS - Start: 18:50:00 - Course: NMBN - Distance: 3.203      

Boat Name SailNo Boat Type Skipper Rating Club Start Finish Elapsed Corrected BCE Notes Place OA
Nefarious USA 53 Farr 30 Daniel Randolph 54 STYC 18:50:00 19:36:09 0:46:09 0:43:16 0:00:00 Flying 1 1
Project Mayhem USA 64 Farr 30 Grady Morgan 54 CYC 18:50:00 19:37:33 0:47:33 0:44:40 0:01:24 Flying 2 2
Bat Out Of Hell USA55 Farr 30 Lance Staughton 54 STYC 18:50:00 19:39:44 0:49:44 0:46:51 0:03:35 Flying 3 3
Freja USA 2 Aerodyne Jonathan Cruse 18 STYC 18:50:00 19:40:06 0:50:06 0:49:08 0:05:52 Flying 4 5
re-Quest 18266 Express 37 Alex Wetmore & Kerry Billingham 72 STYC 18:50:00 19:44:53 0:54:53 0:51:02 0:07:46 Flying 5 6
Those Guys 18155 J/35 Jenny Heins 72 STYC 18:50:00 19:47:52 0:57:52 0:54:01 0:10:45 Flying 6 12
FREDA MAE 790030 CORSAIR 31r VINCENT DEPILLIS -6 nwma 18:50:00 19:44:41 0:54:41 0:54:59 0:11:43 Multihull Flying 7 13
ESCAPE 69160 Corsair F-27 Yury Palatnik 79 STYC/NWMA 18:50:00 DNC Multihull Flying 9 51
Eclipse 256 J/109 Fraser 69 STYC 18:50:00 CB Flying 9 51

STYC scoring (20180405_224030 ver)